Time;durP1;ratioP1;P1;durP2;ratioP2;P2;SDS_P1;SDS_P2;PMS_P1;PMS_P2;Temp;Humidity;BMP_temperature;BMP_pressure;BME280_temperature;BME280_humidity;BME280_pressure;Samples;Min_cycle;Max_cycle;Signal;HPM_P1;HPM_P2
2020/11/15 00:00:24;;;;;;;9.15;6.2;;;;;;;2.85;65.53223;95385.79;;;;
2020/11/15 00:01:25;;;;;;;9.15;6.2;;;;;;;2.85;65.53223;95385.79;;;;
2020/11/15 00:02:25;;;;;;;9.15;6.2;;;;;;;2.85;65.53223;95385.79;;;;
2020/11/15 00:03:26;;;;;;;9.15;6.2;;;;;;;2.85;65.53223;95385.79;;;;
2020/11/15 00:04:26;;;;;;;9.15;6.2;;;;;;;2.85;65.53223;95385.79;;;;
2020/11/15 00:05:27;;;;;;;10.7;5.25;;;;;;;2.83;65.80176;95386.55;;;;
2020/11/15 00:06:27;;;;;;;10.7;5.25;;;;;;;2.83;65.80176;95386.55;;;;
2020/11/15 00:07:28;;;;;;;10.7;5.25;;;;;;;2.83;65.80176;95386.55;;;;
2020/11/15 00:08:28;;;;;;;10.7;5.25;;;;;;;2.83;65.80176;95386.55;;;;
2020/11/15 00:09:29;;;;;;;10.7;5.25;;;;;;;2.83;65.80176;95386.55;;;;
2020/11/15 00:10:29;;;;;;;10.7;5.25;;;;;;;2.83;65.80176;95386.55;;;;
2020/11/15 00:11:30;;;;;;;10.7;5.25;;;;;;;2.83;65.80176;95386.55;;;;
2020/11/15 00:12:30;;;;;;;10.7;5.25;;;;;;;2.83;65.80176;95386.55;;;;
2020/11/15 00:13:31;;;;;;;10.7;5.25;;;;;;;2.83;65.80176;95386.55;;;;
2020/11/15 00:14:31;;;;;;;10.7;5.25;;;;;;;2.83;65.80176;95386.55;;;;
2020/11/15 00:15:32;;;;;;;8.299999;4.400001;;;;;;;2.76;66.00391;95382.9;;;;
2020/11/15 00:16:32;;;;;;;8.299999;4.400001;;;;;;;2.76;66.00391;95382.9;;;;
2020/11/15 00:17:34;;;;;;;8.299999;4.400001;;;;;;;2.76;66.00391;95382.9;;;;
2020/11/15 00:18:35;;;;;;;8.299999;4.400001;;;;;;;2.76;66.00391;95382.9;;;;
2020/11/15 00:19:36;;;;;;;8.299999;4.400001;;;;;;;2.76;66.00391;95382.9;;;;
2020/11/15 00:20:36;;;;;;;8.299999;4.400001;;;;;;;2.76;66.00391;95382.9;;;;
2020/11/15 00:21:37;;;;;;;8.299999;4.400001;;;;;;;2.76;66.00391;95382.9;;;;
2020/11/15 00:22:37;;;;;;;8.299999;4.400001;;;;;;;2.76;66.00391;95382.9;;;;
2020/11/15 00:23:38;;;;;;;8.299999;4.400001;;;;;;;2.76;66.00391;95382.9;;;;
2020/11/15 00:24:40;;;;;;;8.299999;4.400001;;;;;;;2.76;66.00391;95382.9;;;;
2020/11/15 00:25:40;;;;;;;8.299999;4.400001;;;;;;;2.76;66.00391;95382.9;;;;
2020/11/15 00:26:41;;;;;;;5.85;4.15;;;;;;;2.76;66.15137;95381.57;;;;
2020/11/15 00:27:41;;;;;;;5.85;4.15;;;;;;;2.76;66.15137;95381.57;;;;
2020/11/15 00:28:42;;;;;;;5.85;4.15;;;;;;;2.76;66.15137;95381.57;;;;
2020/11/15 00:29:42;;;;;;;5.85;4.15;;;;;;;2.76;66.15137;95381.57;;;;
2020/11/15 00:30:43;;;;;;;5.85;4.15;;;;;;;2.76;66.15137;95381.57;;;;
2020/11/15 00:31:43;;;;;;;5.85;4.15;;;;;;;2.76;66.15137;95381.57;;;;
2020/11/15 00:32:44;;;;;;;5.85;4.15;;;;;;;2.76;66.15137;95381.57;;;;
2020/11/15 00:33:44;;;;;;;5.85;4.15;;;;;;;2.76;66.15137;95381.57;;;;
2020/11/15 00:34:45;;;;;;;5.85;4.15;;;;;;;2.76;66.15137;95381.57;;;;
2020/11/15 00:35:45;;;;;;;5.85;4.15;;;;;;;2.76;66.15137;95381.57;;;;
2020/11/15 00:36:46;;;;;;;6;3.45;;;;;;;2.69;66.29785;95367.83;;;;
2020/11/15 00:37:46;;;;;;;6;3.45;;;;;;;2.69;66.29785;95367.83;;;;
2020/11/15 00:38:47;;;;;;;6;3.45;;;;;;;2.69;66.29785;95367.83;;;;
2020/11/15 00:39:47;;;;;;;6;3.45;;;;;;;2.69;66.29785;95367.83;;;;
2020/11/15 00:40:48;;;;;;;6;3.45;;;;;;;2.69;66.29785;95367.83;;;;
2020/11/15 00:41:49;;;;;;;6;3.45;;;;;;;2.69;66.29785;95367.83;;;;
2020/11/15 00:42:49;;;;;;;6;3.45;;;;;;;2.69;66.29785;95367.83;;;;
2020/11/15 00:43:50;;;;;;;6;3.45;;;;;;;2.69;66.29785;95367.83;;;;
2020/11/15 00:44:50;;;;;;;6;3.45;;;;;;;2.69;66.29785;95367.83;;;;
2020/11/15 00:45:51;;;;;;;6;3.45;;;;;;;2.69;66.29785;95367.83;;;;
2020/11/15 00:46:51;;;;;;;6;3.45;;;;;;;2.69;66.29785;95367.83;;;;
2020/11/15 00:47:52;;;;;;;7.1;3.7;;;;;;;2.61;66.48633;95366.51;;;;
2020/11/15 00:48:52;;;;;;;7.1;3.7;;;;;;;2.61;66.48633;95366.51;;;;
2020/11/15 00:49:53;;;;;;;7.1;3.7;;;;;;;2.61;66.48633;95366.51;;;;
2020/11/15 00:50:53;;;;;;;7.1;3.7;;;;;;;2.61;66.48633;95366.51;;;;
2020/11/15 00:51:54;;;;;;;7.1;3.7;;;;;;;2.61;66.48633;95366.51;;;;
2020/11/15 00:52:54;;;;;;;7.1;3.7;;;;;;;2.61;66.48633;95366.51;;;;
2020/11/15 00:53:55;;;;;;;7.1;3.7;;;;;;;2.61;66.48633;95366.51;;;;
2020/11/15 00:54:55;;;;;;;7.1;3.7;;;;;;;2.61;66.48633;95366.51;;;;
2020/11/15 00:55:56;;;;;;;7.1;3.7;;;;;;;2.61;66.48633;95366.51;;;;
2020/11/15 00:56:56;;;;;;;7.1;3.7;;;;;;;2.61;66.48633;95366.51;;;;
2020/11/15 00:57:57;;;;;;;7.1;3.7;;;;;;;2.61;66.48633;95366.51;;;;
2020/11/15 00:58:58;;;;;;;4.9;3.3;;;;;;;2.56;66.63672;95369.82;;;;
2020/11/15 00:59:58;;;;;;;4.9;3.3;;;;;;;2.56;66.63672;95369.82;;;;
2020/11/15 01:00:58;;;;;;;4.9;3.3;;;;;;;2.56;66.63672;95369.82;;;;
2020/11/15 01:01:59;;;;;;;4.9;3.3;;;;;;;2.56;66.63672;95369.82;;;;
2020/11/15 01:03:00;;;;;;;4.9;3.3;;;;;;;2.56;66.63672;95369.82;;;;
2020/11/15 01:04:00;;;;;;;4.9;3.3;;;;;;;2.56;66.63672;95369.82;;;;
2020/11/15 01:05:01;;;;;;;4.9;3.3;;;;;;;2.56;66.63672;95369.82;;;;
2020/11/15 01:06:02;;;;;;;4.9;3.3;;;;;;;2.56;66.63672;95369.82;;;;
2020/11/15 01:07:02;;;;;;;4.9;3.3;;;;;;;2.56;66.63672;95369.82;;;;
2020/11/15 01:08:03;;;;;;;4.9;3.3;;;;;;;2.56;66.63672;95369.82;;;;
2020/11/15 01:09:03;;;;;;;6.35;3.6;;;;;;;2.5;66.82617;95349.65;;;;
2020/11/15 01:10:04;;;;;;;6.35;3.6;;;;;;;2.5;66.82617;95349.65;;;;
2020/11/15 01:11:06;;;;;;;6.35;3.6;;;;;;;2.5;66.82617;95349.65;;;;
2020/11/15 01:12:06;;;;;;;6.35;3.6;;;;;;;2.5;66.82617;95349.65;;;;
2020/11/15 01:13:07;;;;;;;6.35;3.6;;;;;;;2.5;66.82617;95349.65;;;;
2020/11/15 01:14:08;;;;;;;6.35;3.6;;;;;;;2.5;66.82617;95349.65;;;;
2020/11/15 01:15:08;;;;;;;6.35;3.6;;;;;;;2.5;66.82617;95349.65;;;;
2020/11/15 01:16:10;;;;;;;6.35;3.6;;;;;;;2.5;66.82617;95349.65;;;;
2020/11/15 01:17:10;;;;;;;6.35;3.6;;;;;;;2.5;66.82617;95349.65;;;;
2020/11/15 01:18:11;;;;;;;6.35;3.6;;;;;;;2.5;66.82617;95349.65;;;;
2020/11/15 01:19:11;;;;;;;6.35;3.6;;;;;;;2.5;66.82617;95349.65;;;;
2020/11/15 01:20:12;;;;;;;4.700001;3.55;;;;;;;2.46;66.95508;95352.47;;;;
2020/11/15 01:21:12;;;;;;;4.700001;3.55;;;;;;;2.46;66.95508;95352.47;;;;
2020/11/15 01:22:13;;;;;;;4.700001;3.55;;;;;;;2.46;66.95508;95352.47;;;;
2020/11/15 01:23:13;;;;;;;4.700001;3.55;;;;;;;2.46;66.95508;95352.47;;;;
2020/11/15 01:24:14;;;;;;;4.700001;3.55;;;;;;;2.46;66.95508;95352.47;;;;
2020/11/15 01:25:15;;;;;;;4.700001;3.55;;;;;;;2.46;66.95508;95352.47;;;;
2020/11/15 01:26:15;;;;;;;4.700001;3.55;;;;;;;2.46;66.95508;95352.47;;;;
2020/11/15 01:27:16;;;;;;;4.700001;3.55;;;;;;;2.46;66.95508;95352.47;;;;
2020/11/15 01:28:16;;;;;;;4.700001;3.55;;;;;;;2.46;66.95508;95352.47;;;;
2020/11/15 01:29:17;;;;;;;4.700001;3.55;;;;;;;2.46;66.95508;95352.47;;;;
2020/11/15 01:30:17;;;;;;;4.4;3.45;;;;;;;2.43;67.20508;95361.64;;;;
2020/11/15 01:31:18;;;;;;;4.4;3.45;;;;;;;2.43;67.20508;95361.64;;;;
2020/11/15 01:32:18;;;;;;;4.4;3.45;;;;;;;2.43;67.20508;95361.64;;;;
2020/11/15 01:33:19;;;;;;;4.4;3.45;;;;;;;2.43;67.20508;95361.64;;;;
2020/11/15 01:34:19;;;;;;;4.4;3.45;;;;;;;2.43;67.20508;95361.64;;;;
2020/11/15 01:35:20;;;;;;;4.4;3.45;;;;;;;2.43;67.20508;95361.64;;;;
2020/11/15 01:36:20;;;;;;;4.4;3.45;;;;;;;2.43;67.20508;95361.64;;;;
2020/11/15 01:37:21;;;;;;;4.4;3.45;;;;;;;2.43;67.20508;95361.64;;;;
2020/11/15 01:38:21;;;;;;;4.4;3.45;;;;;;;2.43;67.20508;95361.64;;;;
2020/11/15 01:39:22;;;;;;;4.4;3.45;;;;;;;2.43;67.20508;95361.64;;;;
2020/11/15 01:40:23;;;;;;;4.4;3.45;;;;;;;2.43;67.20508;95361.64;;;;
2020/11/15 01:41:24;;;;;;;4.75;3.299999;;;;;;;2.4;67.36914;95358.44;;;;
2020/11/15 01:42:24;;;;;;;4.75;3.299999;;;;;;;2.4;67.36914;95358.44;;;;
2020/11/15 01:43:25;;;;;;;4.75;3.299999;;;;;;;2.4;67.36914;95358.44;;;;
2020/11/15 01:44:26;;;;;;;4.75;3.299999;;;;;;;2.4;67.36914;95358.44;;;;
2020/11/15 01:45:26;;;;;;;4.75;3.299999;;;;;;;2.4;67.36914;95358.44;;;;
2020/11/15 01:46:27;;;;;;;4.75;3.299999;;;;;;;2.4;67.36914;95358.44;;;;
2020/11/15 01:47:28;;;;;;;4.75;3.299999;;;;;;;2.4;67.36914;95358.44;;;;
2020/11/15 01:48:28;;;;;;;4.75;3.299999;;;;;;;2.4;67.36914;95358.44;;;;
2020/11/15 01:49:29;;;;;;;4.75;3.299999;;;;;;;2.4;67.36914;95358.44;;;;
2020/11/15 01:50:29;;;;;;;4.75;3.299999;;;;;;;2.4;67.36914;95358.44;;;;
2020/11/15 01:51:30;;;;;;;4.8;3.35;;;;;;;2.37;67.5752;95350.83;;;;
2020/11/15 01:52:30;;;;;;;4.8;3.35;;;;;;;2.37;67.5752;95350.83;;;;
2020/11/15 01:53:31;;;;;;;4.8;3.35;;;;;;;2.37;67.5752;95350.83;;;;
2020/11/15 01:54:31;;;;;;;4.8;3.35;;;;;;;2.37;67.5752;95350.83;;;;
2020/11/15 01:55:32;;;;;;;4.8;3.35;;;;;;;2.37;67.5752;95350.83;;;;
2020/11/15 01:56:32;;;;;;;4.8;3.35;;;;;;;2.37;67.5752;95350.83;;;;
2020/11/15 01:57:33;;;;;;;4.8;3.35;;;;;;;2.37;67.5752;95350.83;;;;
2020/11/15 01:58:33;;;;;;;4.8;3.35;;;;;;;2.37;67.5752;95350.83;;;;
2020/11/15 01:59:34;;;;;;;4.8;3.35;;;;;;;2.37;67.5752;95350.83;;;;
2020/11/15 02:00:34;;;;;;;4.8;3.35;;;;;;;2.37;67.5752;95350.83;;;;
2020/11/15 02:01:35;;;;;;;4.8;3.35;;;;;;;2.37;67.5752;95350.83;;;;
2020/11/15 02:02:37;;;;;;;4.85;3;;;;;;;2.34;67.7793;95355.17;;;;
2020/11/15 02:03:37;;;;;;;4.85;3;;;;;;;2.34;67.7793;95355.17;;;;
2020/11/15 02:04:38;;;;;;;4.85;3;;;;;;;2.34;67.7793;95355.17;;;;
2020/11/15 02:05:38;;;;;;;4.85;3;;;;;;;2.34;67.7793;95355.17;;;;
2020/11/15 02:06:39;;;;;;;4.85;3;;;;;;;2.34;67.7793;95355.17;;;;
2020/11/15 02:07:39;;;;;;;4.85;3;;;;;;;2.34;67.7793;95355.17;;;;
2020/11/15 02:08:40;;;;;;;4.85;3;;;;;;;2.34;67.7793;95355.17;;;;
2020/11/15 02:09:40;;;;;;;4.85;3;;;;;;;2.34;67.7793;95355.17;;;;
2020/11/15 02:10:41;;;;;;;4.85;3;;;;;;;2.34;67.7793;95355.17;;;;
2020/11/15 02:11:41;;;;;;;4.85;3;;;;;;;2.34;67.7793;95355.17;;;;
2020/11/15 02:12:42;;;;;;;4.85;3;;;;;;;2.34;67.7793;95355.17;;;;
2020/11/15 02:13:43;;;;;;;3.6;2.95;;;;;;;2.33;67.89355;95342.04;;;;
2020/11/15 02:14:44;;;;;;;3.6;2.95;;;;;;;2.33;67.89355;95342.04;;;;
2020/11/15 02:15:44;;;;;;;3.6;2.95;;;;;;;2.33;67.89355;95342.04;;;;
2020/11/15 02:16:45;;;;;;;3.6;2.95;;;;;;;2.33;67.89355;95342.04;;;;
2020/11/15 02:17:47;;;;;;;3.6;2.95;;;;;;;2.33;67.89355;95342.04;;;;
2020/11/15 02:18:47;;;;;;;3.6;2.95;;;;;;;2.33;67.89355;95342.04;;;;
2020/11/15 02:19:53;;;;;;;3.6;2.95;;;;;;;2.33;67.89355;95342.04;;;;
2020/11/15 02:20:54;;;;;;;3.6;2.95;;;;;;;2.33;67.89355;95342.04;;;;
2020/11/15 02:21:54;;;;;;;3.6;2.95;;;;;;;2.33;67.89355;95342.04;;;;
2020/11/15 02:22:55;;;;;;;3.6;2.95;;;;;;;2.33;67.89355;95342.04;;;;
2020/11/15 02:23:56;;;;;;;3.8;2.8;;;;;;;2.3;68.05566;95355.74;;;;
2020/11/15 02:24:57;;;;;;;3.8;2.8;;;;;;;2.3;68.05566;95355.74;;;;
2020/11/15 02:25:58;;;;;;;3.8;2.8;;;;;;;2.3;68.05566;95355.74;;;;
2020/11/15 02:26:59;;;;;;;3.8;2.8;;;;;;;2.3;68.05566;95355.74;;;;
2020/11/15 02:28:00;;;;;;;3.8;2.8;;;;;;;2.3;68.05566;95355.74;;;;
2020/11/15 02:29:01;;;;;;;3.8;2.8;;;;;;;2.3;68.05566;95355.74;;;;
2020/11/15 02:30:02;;;;;;;3.8;2.8;;;;;;;2.3;68.05566;95355.74;;;;
2020/11/15 02:31:03;;;;;;;3.8;2.8;;;;;;;2.3;68.05566;95355.74;;;;
2020/11/15 02:32:03;;;;;;;3.8;2.8;;;;;;;2.3;68.05566;95355.74;;;;
2020/11/15 02:33:04;;;;;;;3.8;2.8;;;;;;;2.3;68.05566;95355.74;;;;
2020/11/15 02:34:04;;;;;;;3.8;2.8;;;;;;;2.3;68.05566;95355.74;;;;
2020/11/15 02:35:05;;;;;;;4.55;3.25;;;;;;;2.35;68.16992;95361.33;;;;
2020/11/15 02:36:05;;;;;;;4.55;3.25;;;;;;;2.35;68.16992;95361.33;;;;
2020/11/15 02:37:06;;;;;;;4.55;3.25;;;;;;;2.35;68.16992;95361.33;;;;
2020/11/15 02:38:06;;;;;;;4.55;3.25;;;;;;;2.35;68.16992;95361.33;;;;
2020/11/15 02:39:07;;;;;;;4.55;3.25;;;;;;;2.35;68.16992;95361.33;;;;
2020/11/15 02:40:07;;;;;;;4.55;3.25;;;;;;;2.35;68.16992;95361.33;;;;
2020/11/15 02:41:08;;;;;;;4.55;3.25;;;;;;;2.35;68.16992;95361.33;;;;
2020/11/15 02:42:08;;;;;;;4.55;3.25;;;;;;;2.35;68.16992;95361.33;;;;
2020/11/15 02:43:09;;;;;;;4.55;3.25;;;;;;;2.35;68.16992;95361.33;;;;
2020/11/15 02:44:09;;;;;;;4.55;3.25;;;;;;;2.35;68.16992;95361.33;;;;
2020/11/15 02:45:10;;;;;;;4.650001;2.75;;;;;;;2.31;68.29004;95352.04;;;;
2020/11/15 02:46:10;;;;;;;4.650001;2.75;;;;;;;2.31;68.29004;95352.04;;;;
2020/11/15 02:47:11;;;;;;;4.650001;2.75;;;;;;;2.31;68.29004;95352.04;;;;
2020/11/15 02:48:12;;;;;;;4.650001;2.75;;;;;;;2.31;68.29004;95352.04;;;;
2020/11/15 02:49:12;;;;;;;4.650001;2.75;;;;;;;2.31;68.29004;95352.04;;;;
2020/11/15 02:50:13;;;;;;;4.650001;2.75;;;;;;;2.31;68.29004;95352.04;;;;
2020/11/15 02:51:13;;;;;;;4.650001;2.75;;;;;;;2.31;68.29004;95352.04;;;;
2020/11/15 02:52:14;;;;;;;4.650001;2.75;;;;;;;2.31;68.29004;95352.04;;;;
2020/11/15 02:53:14;;;;;;;4.650001;2.75;;;;;;;2.31;68.29004;95352.04;;;;
2020/11/15 02:54:15;;;;;;;4.650001;2.75;;;;;;;2.31;68.29004;95352.04;;;;
2020/11/15 02:55:15;;;;;;;4.650001;2.75;;;;;;;2.31;68.29004;95352.04;;;;
2020/11/15 02:56:16;;;;;;;3.35;2.6;;;;;;;2.33;68.44141;95345.54;;;;
2020/11/15 02:57:16;;;;;;;3.35;2.6;;;;;;;2.33;68.44141;95345.54;;;;
2020/11/15 02:58:17;;;;;;;3.35;2.6;;;;;;;2.33;68.44141;95345.54;;;;
2020/11/15 02:59:17;;;;;;;3.35;2.6;;;;;;;2.33;68.44141;95345.54;;;;
2020/11/15 03:00:18;;;;;;;3.35;2.6;;;;;;;2.33;68.44141;95345.54;;;;
2020/11/15 03:01:22;;;;;;;3.35;2.6;;;;;;;2.33;68.44141;95345.54;;;;
2020/11/15 03:02:22;;;;;;;3.35;2.6;;;;;;;2.33;68.44141;95345.54;;;;
2020/11/15 03:03:23;;;;;;;3.35;2.6;;;;;;;2.33;68.44141;95345.54;;;;
2020/11/15 03:04:23;;;;;;;3.35;2.6;;;;;;;2.33;68.44141;95345.54;;;;
2020/11/15 03:05:24;;;;;;;3.35;2.6;;;;;;;2.33;68.44141;95345.54;;;;
2020/11/15 03:06:24;;;;;;;4.150001;2.95;;;;;;;2.28;68.53613;95339.11;;;;
2020/11/15 03:07:25;;;;;;;4.150001;2.95;;;;;;;2.28;68.53613;95339.11;;;;
2020/11/15 03:08:25;;;;;;;4.150001;2.95;;;;;;;2.28;68.53613;95339.11;;;;
2020/11/15 03:09:26;;;;;;;4.150001;2.95;;;;;;;2.28;68.53613;95339.11;;;;
2020/11/15 03:10:26;;;;;;;4.150001;2.95;;;;;;;2.28;68.53613;95339.11;;;;
2020/11/15 03:11:27;;;;;;;4.150001;2.95;;;;;;;2.28;68.53613;95339.11;;;;
2020/11/15 03:12:28;;;;;;;4.150001;2.95;;;;;;;2.28;68.53613;95339.11;;;;
2020/11/15 03:13:28;;;;;;;4.150001;2.95;;;;;;;2.28;68.53613;95339.11;;;;
2020/11/15 03:14:29;;;;;;;4.150001;2.95;;;;;;;2.28;68.53613;95339.11;;;;
2020/11/15 03:15:29;;;;;;;4.150001;2.95;;;;;;;2.28;68.53613;95339.11;;;;
2020/11/15 03:16:30;;;;;;;4.150001;2.95;;;;;;;2.28;68.53613;95339.11;;;;
2020/11/15 03:17:30;;;;;;;4.199999;2.7;;;;;;;2.2;68.85059;95331.19;;;;
2020/11/15 03:18:31;;;;;;;4.199999;2.7;;;;;;;2.2;68.85059;95331.19;;;;
2020/11/15 03:19:31;;;;;;;4.199999;2.7;;;;;;;2.2;68.85059;95331.19;;;;
2020/11/15 03:20:32;;;;;;;4.199999;2.7;;;;;;;2.2;68.85059;95331.19;;;;
2020/11/15 03:21:32;;;;;;;4.199999;2.7;;;;;;;2.2;68.85059;95331.19;;;;
2020/11/15 03:22:33;;;;;;;4.199999;2.7;;;;;;;2.2;68.85059;95331.19;;;;
2020/11/15 03:23:33;;;;;;;4.199999;2.7;;;;;;;2.2;68.85059;95331.19;;;;
2020/11/15 03:24:34;;;;;;;4.199999;2.7;;;;;;;2.2;68.85059;95331.19;;;;
2020/11/15 03:25:34;;;;;;;4.199999;2.7;;;;;;;2.2;68.85059;95331.19;;;;
2020/11/15 03:26:35;;;;;;;4.199999;2.7;;;;;;;2.2;68.85059;95331.19;;;;
2020/11/15 03:27:35;;;;;;;3.95;2.7;;;;;;;2.13;69.0498;95339.51;;;;
2020/11/15 03:28:36;;;;;;;3.95;2.7;;;;;;;2.13;69.0498;95339.51;;;;
2020/11/15 03:29:36;;;;;;;3.95;2.7;;;;;;;2.13;69.0498;95339.51;;;;
2020/11/15 03:30:37;;;;;;;3.95;2.7;;;;;;;2.13;69.0498;95339.51;;;;
2020/11/15 03:31:37;;;;;;;3.95;2.7;;;;;;;2.13;69.0498;95339.51;;;;
2020/11/15 03:32:38;;;;;;;3.95;2.7;;;;;;;2.13;69.0498;95339.51;;;;
2020/11/15 03:33:38;;;;;;;3.95;2.7;;;;;;;2.13;69.0498;95339.51;;;;
2020/11/15 03:34:39;;;;;;;3.95;2.7;;;;;;;2.13;69.0498;95339.51;;;;
2020/11/15 03:35:39;;;;;;;3.95;2.7;;;;;;;2.13;69.0498;95339.51;;;;
2020/11/15 03:36:40;;;;;;;3.95;2.7;;;;;;;2.13;69.0498;95339.51;;;;
2020/11/15 03:37:40;;;;;;;3.95;2.7;;;;;;;2.13;69.0498;95339.51;;;;
2020/11/15 03:38:41;;;;;;;4.25;2.65;;;;;;;2.16;69.09668;95340.97;;;;
2020/11/15 03:39:41;;;;;;;4.25;2.65;;;;;;;2.16;69.09668;95340.97;;;;
2020/11/15 03:40:42;;;;;;;4.25;2.65;;;;;;;2.16;69.09668;95340.97;;;;
2020/11/15 03:41:42;;;;;;;4.25;2.65;;;;;;;2.16;69.09668;95340.97;;;;
2020/11/15 03:42:43;;;;;;;4.25;2.65;;;;;;;2.16;69.09668;95340.97;;;;
2020/11/15 03:43:43;;;;;;;4.25;2.65;;;;;;;2.16;69.09668;95340.97;;;;
2020/11/15 03:44:44;;;;;;;4.25;2.65;;;;;;;2.16;69.09668;95340.97;;;;
2020/11/15 03:45:44;;;;;;;4.25;2.65;;;;;;;2.16;69.09668;95340.97;;;;
2020/11/15 03:46:45;;;;;;;4.25;2.65;;;;;;;2.16;69.09668;95340.97;;;;
2020/11/15 03:47:46;;;;;;;4.25;2.65;;;;;;;2.16;69.09668;95340.97;;;;
2020/11/15 03:48:47;;;;;;;3.25;2.55;;;;;;;2.09;69.2002;95346.3;;;;
2020/11/15 03:49:47;;;;;;;3.25;2.55;;;;;;;2.09;69.2002;95346.3;;;;
2020/11/15 03:50:48;;;;;;;3.25;2.55;;;;;;;2.09;69.2002;95346.3;;;;
2020/11/15 03:51:48;;;;;;;3.25;2.55;;;;;;;2.09;69.2002;95346.3;;;;
2020/11/15 03:52:49;;;;;;;3.25;2.55;;;;;;;2.09;69.2002;95346.3;;;;
2020/11/15 03:53:49;;;;;;;3.25;2.55;;;;;;;2.09;69.2002;95346.3;;;;
2020/11/15 03:54:50;;;;;;;3.25;2.55;;;;;;;2.09;69.2002;95346.3;;;;
2020/11/15 03:55:50;;;;;;;3.25;2.55;;;;;;;2.09;69.2002;95346.3;;;;
2020/11/15 03:56:51;;;;;;;3.25;2.55;;;;;;;2.09;69.2002;95346.3;;;;
2020/11/15 03:57:51;;;;;;;3.25;2.55;;;;;;;2.09;69.2002;95346.3;;;;
2020/11/15 03:58:52;;;;;;;3.25;2.55;;;;;;;2.09;69.2002;95346.3;;;;
2020/11/15 03:59:52;;;;;;;4.05;2.75;;;;;;;2.01;69.48145;95341.06;;;;
2020/11/15 04:00:53;;;;;;;4.05;2.75;;;;;;;2.01;69.48145;95341.06;;;;
2020/11/15 04:01:53;;;;;;;4.05;2.75;;;;;;;2.01;69.48145;95341.06;;;;
2020/11/15 04:02:54;;;;;;;4.05;2.75;;;;;;;2.01;69.48145;95341.06;;;;
2020/11/15 04:03:54;;;;;;;4.05;2.75;;;;;;;2.01;69.48145;95341.06;;;;
2020/11/15 04:04:56;;;;;;;4.05;2.75;;;;;;;2.01;69.48145;95341.06;;;;
2020/11/15 04:05:57;;;;;;;4.05;2.75;;;;;;;2.01;69.48145;95341.06;;;;
2020/11/15 04:06:58;;;;;;;4.05;2.75;;;;;;;2.01;69.48145;95341.06;;;;
2020/11/15 04:07:58;;;;;;;4.05;2.75;;;;;;;2.01;69.48145;95341.06;;;;
2020/11/15 04:08:59;;;;;;;4.05;2.75;;;;;;;2.01;69.48145;95341.06;;;;
2020/11/15 04:09:59;;;;;;;4.05;2.75;;;;;;;2.01;69.48145;95341.06;;;;
2020/11/15 04:11:00;;;;;;;4.8;2.85;;;;;;;1.96;69.64258;95338.02;;;;
2020/11/15 04:12:00;;;;;;;4.8;2.85;;;;;;;1.96;69.64258;95338.02;;;;
2020/11/15 04:13:01;;;;;;;4.8;2.85;;;;;;;1.96;69.64258;95338.02;;;;
2020/11/15 04:14:01;;;;;;;4.8;2.85;;;;;;;1.96;69.64258;95338.02;;;;
2020/11/15 04:15:02;;;;;;;4.8;2.85;;;;;;;1.96;69.64258;95338.02;;;;
2020/11/15 04:16:02;;;;;;;4.8;2.85;;;;;;;1.96;69.64258;95338.02;;;;
2020/11/15 04:17:16;;;;;;;4.8;2.85;;;;;;;1.96;69.64258;95338.02;;;;
2020/11/15 04:18:17;;;;;;;4.8;2.85;;;;;;;1.96;69.64258;95338.02;;;;
2020/11/15 04:19:17;;;;;;;4.8;2.85;;;;;;;1.96;69.64258;95338.02;;;;
2020/11/15 04:20:18;;;;;;;4.8;2.85;;;;;;;1.96;69.64258;95338.02;;;;
2020/11/15 04:21:18;;;;;;;3.25;2.7;;;;;;;1.96;69.7998;95340.26;;;;
2020/11/15 04:22:19;;;;;;;3.25;2.7;;;;;;;1.96;69.7998;95340.26;;;;
2020/11/15 04:23:19;;;;;;;3.25;2.7;;;;;;;1.96;69.7998;95340.26;;;;
2020/11/15 04:24:20;;;;;;;3.25;2.7;;;;;;;1.96;69.7998;95340.26;;;;
2020/11/15 04:25:20;;;;;;;3.25;2.7;;;;;;;1.96;69.7998;95340.26;;;;
2020/11/15 04:26:21;;;;;;;3.25;2.7;;;;;;;1.96;69.7998;95340.26;;;;
2020/11/15 04:27:21;;;;;;;3.25;2.7;;;;;;;1.96;69.7998;95340.26;;;;
2020/11/15 04:28:22;;;;;;;3.25;2.7;;;;;;;1.96;69.7998;95340.26;;;;
2020/11/15 04:29:22;;;;;;;3.25;2.7;;;;;;;1.96;69.7998;95340.26;;;;
2020/11/15 04:30:23;;;;;;;3.25;2.7;;;;;;;1.96;69.7998;95340.26;;;;
2020/11/15 04:31:23;;;;;;;3.25;2.7;;;;;;;1.96;69.7998;95340.26;;;;
2020/11/15 04:32:24;;;;;;;3.45;2.9;;;;;;;1.95;69.97656;95346.2;;;;
2020/11/15 04:33:24;;;;;;;3.45;2.9;;;;;;;1.95;69.97656;95346.2;;;;
2020/11/15 04:34:25;;;;;;;3.45;2.9;;;;;;;1.95;69.97656;95346.2;;;;
2020/11/15 04:35:25;;;;;;;3.45;2.9;;;;;;;1.95;69.97656;95346.2;;;;
2020/11/15 04:36:26;;;;;;;3.45;2.9;;;;;;;1.95;69.97656;95346.2;;;;
2020/11/15 04:37:26;;;;;;;3.45;2.9;;;;;;;1.95;69.97656;95346.2;;;;
2020/11/15 04:38:27;;;;;;;3.45;2.9;;;;;;;1.95;69.97656;95346.2;;;;
2020/11/15 04:39:27;;;;;;;3.45;2.9;;;;;;;1.95;69.97656;95346.2;;;;
2020/11/15 04:40:28;;;;;;;3.45;2.9;;;;;;;1.95;69.97656;95346.2;;;;
2020/11/15 04:41:28;;;;;;;3.45;2.9;;;;;;;1.95;69.97656;95346.2;;;;
2020/11/15 04:42:29;;;;;;;4.15;2.85;;;;;;;1.93;70.17188;95351.78;;;;
2020/11/15 04:43:29;;;;;;;4.15;2.85;;;;;;;1.93;70.17188;95351.78;;;;
2020/11/15 04:44:30;;;;;;;4.15;2.85;;;;;;;1.93;70.17188;95351.78;;;;
2020/11/15 04:45:31;;;;;;;4.15;2.85;;;;;;;1.93;70.17188;95351.78;;;;
2020/11/15 04:46:32;;;;;;;4.15;2.85;;;;;;;1.93;70.17188;95351.78;;;;
2020/11/15 04:47:33;;;;;;;4.15;2.85;;;;;;;1.93;70.17188;95351.78;;;;
2020/11/15 04:48:34;;;;;;;4.15;2.85;;;;;;;1.93;70.17188;95351.78;;;;
2020/11/15 04:49:34;;;;;;;4.15;2.85;;;;;;;1.93;70.17188;95351.78;;;;
2020/11/15 04:50:35;;;;;;;4.15;2.85;;;;;;;1.93;70.17188;95351.78;;;;
2020/11/15 04:51:35;;;;;;;4.15;2.85;;;;;;;1.93;70.17188;95351.78;;;;
2020/11/15 04:52:35;;;;;;;4.15;2.85;;;;;;;1.93;70.17188;95351.78;;;;
2020/11/15 04:53:36;;;;;;;3.5;2.6;;;;;;;1.92;70.2959;95335.5;;;;
2020/11/15 04:54:36;;;;;;;3.5;2.6;;;;;;;1.92;70.2959;95335.5;;;;
2020/11/15 04:55:37;;;;;;;3.5;2.6;;;;;;;1.92;70.2959;95335.5;;;;
2020/11/15 04:56:38;;;;;;;3.5;2.6;;;;;;;1.92;70.2959;95335.5;;;;
2020/11/15 04:57:39;;;;;;;3.5;2.6;;;;;;;1.92;70.2959;95335.5;;;;
2020/11/15 04:58:39;;;;;;;3.5;2.6;;;;;;;1.92;70.2959;95335.5;;;;
2020/11/15 04:59:40;;;;;;;3.5;2.6;;;;;;;1.92;70.2959;95335.5;;;;
2020/11/15 05:00:40;;;;;;;3.5;2.6;;;;;;;1.92;70.2959;95335.5;;;;
2020/11/15 05:01:42;;;;;;;3.5;2.6;;;;;;;1.92;70.2959;95335.5;;;;
2020/11/15 05:02:43;;;;;;;3.5;2.6;;;;;;;1.92;70.2959;95335.5;;;;
2020/11/15 05:03:44;;;;;;;3.850001;2.8;;;;;;;1.99;70.42383;95332.85;;;;
2020/11/15 05:04:44;;;;;;;3.850001;2.8;;;;;;;1.99;70.42383;95332.85;;;;
2020/11/15 05:05:45;;;;;;;3.850001;2.8;;;;;;;1.99;70.42383;95332.85;;;;
2020/11/15 05:06:47;;;;;;;3.850001;2.8;;;;;;;1.99;70.42383;95332.85;;;;
2020/11/15 05:07:47;;;;;;;3.850001;2.8;;;;;;;1.99;70.42383;95332.85;;;;
2020/11/15 05:08:48;;;;;;;3.850001;2.8;;;;;;;1.99;70.42383;95332.85;;;;
2020/11/15 05:09:49;;;;;;;3.850001;2.8;;;;;;;1.99;70.42383;95332.85;;;;
2020/11/15 05:10:51;;;;;;;3.850001;2.8;;;;;;;1.99;70.42383;95332.85;;;;
2020/11/15 05:11:51;;;;;;;3.850001;2.8;;;;;;;1.99;70.42383;95332.85;;;;
2020/11/15 05:12:54;;;;;;;3.850001;2.8;;;;;;;1.99;70.42383;95332.85;;;;
2020/11/15 05:13:54;;;;;;;3.850001;2.8;;;;;;;1.99;70.42383;95332.85;;;;
2020/11/15 05:14:57;;;;;;;4.05;2.65;;;;;;;1.96;70.3877;95330.03;;;;
2020/11/15 05:15:58;;;;;;;4.05;2.65;;;;;;;1.96;70.3877;95330.03;;;;
2020/11/15 05:16:59;;;;;;;4.05;2.65;;;;;;;1.96;70.3877;95330.03;;;;
2020/11/15 05:18:00;;;;;;;4.05;2.65;;;;;;;1.96;70.3877;95330.03;;;;
2020/11/15 05:19:03;;;;;;;4.05;2.65;;;;;;;1.96;70.3877;95330.03;;;;
2020/11/15 05:20:04;;;;;;;4.05;2.65;;;;;;;1.96;70.3877;95330.03;;;;
2020/11/15 05:21:21;;;;;;;4.05;2.65;;;;;;;1.96;70.3877;95330.03;;;;
2020/11/15 05:22:25;;;;;;;4.05;2.65;;;;;;;1.96;70.3877;95330.03;;;;
2020/11/15 05:23:25;;;;;;;4.05;2.65;;;;;;;1.96;70.3877;95330.03;;;;
2020/11/15 05:24:28;;;;;;;4.05;2.65;;;;;;;1.96;70.3877;95330.03;;;;
2020/11/15 05:25:33;;;;;;;4.15;2.25;;;;;;;1.92;70.65332;95337.25;;;;
2020/11/15 05:26:34;;;;;;;4.15;2.25;;;;;;;1.92;70.65332;95337.25;;;;
2020/11/15 05:27:35;;;;;;;4.15;2.25;;;;;;;1.92;70.65332;95337.25;;;;
2020/11/15 05:28:35;;;;;;;4.15;2.25;;;;;;;1.92;70.65332;95337.25;;;;
2020/11/15 05:29:36;;;;;;;4.15;2.25;;;;;;;1.92;70.65332;95337.25;;;;
2020/11/15 05:30:38;;;;;;;4.15;2.25;;;;;;;1.92;70.65332;95337.25;;;;
2020/11/15 05:31:40;;;;;;;4.15;2.25;;;;;;;1.92;70.65332;95337.25;;;;
2020/11/15 05:32:42;;;;;;;4.15;2.25;;;;;;;1.92;70.65332;95337.25;;;;
2020/11/15 05:33:43;;;;;;;4.15;2.25;;;;;;;1.92;70.65332;95337.25;;;;
2020/11/15 05:34:46;;;;;;;4.15;2.25;;;;;;;1.92;70.65332;95337.25;;;;
2020/11/15 05:35:47;;;;;;;2.95;2.4;;;;;;;1.87;70.80273;95331.66;;;;
2020/11/15 05:36:48;;;;;;;2.95;2.4;;;;;;;1.87;70.80273;95331.66;;;;
2020/11/15 05:37:49;;;;;;;2.95;2.4;;;;;;;1.87;70.80273;95331.66;;;;
2020/11/15 05:38:51;;;;;;;2.95;2.4;;;;;;;1.87;70.80273;95331.66;;;;
2020/11/15 05:39:52;;;;;;;2.95;2.4;;;;;;;1.87;70.80273;95331.66;;;;
2020/11/15 05:40:53;;;;;;;2.95;2.4;;;;;;;1.87;70.80273;95331.66;;;;
2020/11/15 05:41:55;;;;;;;2.95;2.4;;;;;;;1.87;70.80273;95331.66;;;;
2020/11/15 05:43:00;;;;;;;2.95;2.4;;;;;;;1.87;70.80273;95331.66;;;;
2020/11/15 05:44:04;;;;;;;2.95;2.4;;;;;;;1.87;70.80273;95331.66;;;;
2020/11/15 05:45:05;;;;;;;2.95;2.4;;;;;;;1.87;70.80273;95331.66;;;;
2020/11/15 05:46:05;;;;;;;2.95;2.4;;;;;;;1.87;70.80273;95331.66;;;;
2020/11/15 05:47:06;;;;;;;3.9;2.5;;;;;;;1.83;70.99414;95333.93;;;;
2020/11/15 05:48:07;;;;;;;3.9;2.5;;;;;;;1.83;70.99414;95333.93;;;;
2020/11/15 05:49:09;;;;;;;3.9;2.5;;;;;;;1.83;70.99414;95333.93;;;;
2020/11/15 05:50:17;;;;;;;3.9;2.5;;;;;;;1.83;70.99414;95333.93;;;;